Time;durP1;ratioP1;P1;durP2;ratioP2;P2;SDS_P1;SDS_P2;PMS_P1;PMS_P2;Temp;Humidity;BMP_temperature;BMP_pressure;BME280_temperature;BME280_humidity;BME280_pressure;Samples;Min_cycle;Max_cycle;Signal;HPM_P1;HPM_P2
2023/07/15 05:19:47;;;;;;;;;;;;;;;6.26;100.00;98869.75;5015263;28;20371;-89
2023/07/15 05:22:13;;;;;;;;;;;;;;;6.29;100.00;98881.00;4993809;28;19925;-86
2023/07/15 05:24:38;;;;;;;;;;;;;;;6.36;100.00;98885.09;4993635;28;19917;-86
2023/07/15 05:27:04;;;;;;;;;;;;;;;6.36;100.00;98879.84;5001627;28;20538;-89
2023/07/15 05:29:29;;;;;;;;;;;;;;;6.39;100.00;98872.75;4995562;28;19925;-90
2023/07/15 05:31:54;;;;;;;;;;;;;;;6.29;100.00;98867.88;4994210;28;19937;-84
2023/07/15 05:34:20;;;;;;;;;;;;;;;6.24;100.00;98861.06;4994902;28;20295;-84
2023/07/15 05:36:45;;;;;;;;;;;;;;;6.34;100.00;98870.31;4995480;28;19925;-87
2023/07/15 05:39:11;;;;;;;;;;;;;;;6.45;100.00;98872.53;5012694;28;20011;-86
2023/07/15 05:41:36;;;;;;;;;;;;;;;6.43;100.00;98867.31;4995098;28;19917;-91
2023/07/15 05:44:01;;;;;;;;;;;;;;;6.41;100.00;98879.66;4995278;28;19960;-87
2023/07/15 05:46:27;;;;;;;;;;;;;;;6.36;100.00;98871.94;4989336;28;20020;-86
2023/07/15 05:48:52;;;;;;;;;;;;;;;6.39;100.00;98873.59;4990748;28;19921;-85
2023/07/15 05:51:17;;;;;;;;;;;;;;;6.39;100.00;98889.41;5012554;28;20399;-89
2023/07/15 05:53:43;;;;;;;;;;;;;;;6.45;100.00;98904.09;4995588;28;20003;-92
2023/07/15 05:56:08;;;;;;;;;;;;;;;6.48;100.00;98904.81;4995304;28;19925;-93
2023/07/15 05:58:33;;;;;;;;;;;;;;;6.54;100.00;98915.09;5013168;28;19961;-85
2023/07/15 06:00:59;;;;;;;;;;;;;;;6.49;100.00;98910.94;5013355;28;19926;-95
2023/07/15 06:03:25;;;;;;;;;;;;;;;6.40;100.00;98904.28;5011105;28;20362;-85
2023/07/15 06:05:51;;;;;;;;;;;;;;;6.40;100.00;98899.00;5002633;28;19922;-83
2023/07/15 06:08:16;;;;;;;;;;;;;;;6.39;100.00;98904.34;5012473;28;20427;-85
2023/07/15 06:10:42;;;;;;;;;;;;;;;6.45;100.00;98901.47;5012299;28;20399;-84
2023/07/15 06:13:08;;;;;;;;;;;;;;;6.43;100.00;98908.53;4994786;28;19960;-88
2023/07/15 06:15:35;;;;;;;;;;;;;;;6.53;100.00;98915.16;4993406;28;19972;-87
2023/07/15 06:18:01;;;;;;;;;;;;;;;6.54;100.00;98919.50;5010878;28;19925;-84
2023/07/15 06:20:27;;;;;;;;;;;;;;;6.66;100.00;98924.28;4994769;28;19925;-82
2023/07/15 06:22:52;;;;;;;;;;;;;;;6.67;100.00;98928.63;5012540;28;19926;-89
2023/07/15 06:25:17;;;;;;;;;;;;;;;6.71;100.00;98922.31;5012058;28;19976;-85
2023/07/15 06:27:43;;;;;;;;;;;;;;;6.70;100.00;98928.50;5012180;28;19972;-89
2023/07/15 06:30:08;;;;;;;;;;;;;;;6.73;100.00;98944.19;5012640;28;20373;-83
2023/07/15 06:32:33;;;;;;;;;;;;;;;6.80;100.00;98931.63;5010797;28;19970;-87
2023/07/15 06:34:58;;;;;;;;;;;;;;;6.73;100.00;98925.75;4994467;28;20336;-84
2023/07/15 06:37:24;;;;;;;;;;;;;;;6.75;100.00;98920.44;4994335;28;19918;-84
2023/07/15 06:39:49;;;;;;;;;;;;;;;6.72;100.00;98926.66;5015385;28;20072;-86
2023/07/15 06:42:14;;;;;;;;;;;;;;;6.73;100.00;98917.84;4998198;28;19924;-85
2023/07/15 06:44:39;;;;;;;;;;;;;;;6.77;100.00;98915.09;5015846;28;19917;-85
2023/07/15 06:47:05;;;;;;;;;;;;;;;6.72;100.00;98908.22;4996813;28;20008;-85
2023/07/15 06:49:30;;;;;;;;;;;;;;;6.73;100.00;98888.88;4998261;28;20388;-88
2023/07/15 06:51:55;;;;;;;;;;;;;;;6.72;100.00;98895.06;4997955;28;19913;-91
2023/07/15 06:54:21;;;;;;;;;;;;;;;6.72;100.00;98907.38;4998077;28;19932;-84
2023/07/15 06:56:47;;;;;;;;;;;;;;;6.72;100.00;98902.13;5015508;28;19945;-85
2023/07/15 06:59:12;;;;;;;;;;;;;;;6.73;100.00;98902.06;4997950;28;19922;-89
2023/07/15 07:01:37;;;;;;;;;;;;;;;6.79;100.00;98915.88;5009454;28;20386;-88
2023/07/15 07:04:03;;;;;;;;;;;;;;;6.76;100.00;98919.47;4995148;28;19984;-86
2023/07/15 07:06:28;;;;;;;;;;;;;;;6.77;100.00;98928.25;4998220;28;19917;-94
2023/07/15 07:08:54;;;;;;;;;;;;;;;6.69;100.00;98934.69;4991763;28;20004;-89
2023/07/15 07:33:18;;;;;;;;;;;;;;;6.52;100.00;98952.94;5418755;23;20415;-83
2023/07/15 07:35:49;;;;;;;;;;;;;;;6.53;100.00;98962.53;4987528;28;20045;-86
2023/07/15 07:38:15;;;;;;;;;;;;;;;6.49;100.00;98960.94;4987874;28;19921;-84
2023/07/15 07:40:44;;;;;;;;;;;;;;;6.49;100.00;98947.78;5005032;28;19917;-84
2023/07/15 07:43:09;;;;;;;;;;;;;;;6.62;100.00;98951.66;4987323;28;19964;-85
2023/07/15 07:45:35;;;;;;;;;;;;;;;6.69;100.00;98961.00;4987576;28;20149;-87
2023/07/15 07:48:00;;;;;;;;;;;;;;;6.82;100.00;98958.72;4985966;28;19927;-88
2023/07/15 07:50:27;;;;;;;;;;;;;;;6.81;100.00;98966.69;4986974;28;19922;-87
2023/07/15 07:52:52;;;;;;;;;;;;;;;6.84;100.00;98974.47;5003748;28;19917;-87
2023/07/15 07:55:17;;;;;;;;;;;;;;;6.84;100.00;98975.31;5004427;28;19928;-90
2023/07/15 07:57:43;;;;;;;;;;;;;;;6.91;100.00;98971.53;4987438;28;19964;-86
2023/07/15 08:00:09;;;;;;;;;;;;;;;6.93;100.00;98979.38;4998726;28;19918;-86
2023/07/15 08:02:34;;;;;;;;;;;;;;;6.95;100.00;98988.06;4985689;28;19972;-91
2023/07/15 08:04:59;;;;;;;;;;;;;;;6.97;100.00;99004.66;5004656;28;20280;-89
2023/07/15 08:07:24;;;;;;;;;;;;;;;6.96;100.00;99013.50;5004999;28;19992;-92
2023/07/15 08:09:50;;;;;;;;;;;;;;;7.07;100.00;99019.19;5006477;28;19921;-92
2023/07/15 08:12:17;;;;;;;;;;;;;;;7.08;100.00;99018.28;5004997;28;19922;-92
2023/07/15 08:14:42;;;;;;;;;;;;;;;7.06;100.00;99027.13;5003517;28;19918;-88
2023/07/15 08:17:07;;;;;;;;;;;;;;;7.06;100.00;99021.88;5002907;28;20400;-90
2023/07/15 08:19:32;;;;;;;;;;;;;;;7.02;100.00;99021.16;4980985;28;20009;-93
2023/07/15 08:21:58;;;;;;;;;;;;;;;7.01;100.00;99027.31;4988704;28;20037;-89
2023/07/15 08:24:23;;;;;;;;;;;;;;;7.06;100.00;99021.88;4987914;28;19941;-92
2023/07/15 08:26:48;;;;;;;;;;;;;;;7.05;100.00;99015.75;4987345;28;19918;-92
2023/07/15 08:29:13;;;;;;;;;;;;;;;7.06;100.00;99006.91;5004832;28;20480;-93
2023/07/15 08:31:39;;;;;;;;;;;;;;;7.02;100.00;99005.34;4987681;28;20400;-89
2023/07/15 08:34:04;;;;;;;;;;;;;;;7.10;100.00;98997.13;5003800;28;19921;-89
2023/07/15 08:36:29;;;;;;;;;;;;;;;7.05;100.00;99004.34;5004324;28;20364;-88
2023/07/15 08:38:54;;;;;;;;;;;;;;;7.05;100.00;98985.91;4986261;28;19984;-84
2023/07/15 08:41:23;;;;;;;;;;;;;;;7.09;100.00;98987.50;4999991;28;20050;-85
2023/07/15 08:43:48;;;;;;;;;;;;;;;7.10;100.00;99012.94;4985874;28;19921;-86
2023/07/15 08:46:27;;;;;;;;;;;;;;;7.14;100.00;99056.66;4986265;28;19918;-90
2023/07/15 08:48:53;;;;;;;;;;;;;;;7.16;100.00;99078.53;4985271;28;20324;-91
2023/07/15 08:51:21;;;;;;;;;;;;;;;7.14;100.00;99087.44;4981310;28;19917;-88
2023/07/15 08:53:46;;;;;;;;;;;;;;;7.20;100.00;99082.78;5002774;28;19921;-84
2023/07/15 08:56:12;;;;;;;;;;;;;;;7.21;100.00;99084.50;4985125;28;19984;-90
2023/07/15 08:58:38;;;;;;;;;;;;;;;7.24;100.00;99079.09;4983296;28;19917;-91
2023/07/15 09:01:03;;;;;;;;;;;;;;;7.23;100.00;99050.19;4985643;28;19917;-89
2023/07/15 09:03:28;;;;;;;;;;;;;;;7.21;100.00;99046.72;4985264;28;19922;-91
2023/07/15 09:05:53;;;;;;;;;;;;;;;7.23;100.00;99026.47;4979808;28;20285;-85
2023/07/15 09:08:19;;;;;;;;;;;;;;;7.34;100.00;98994.38;5003019;28;20068;-85
2023/07/15 09:10:57;;;;;;;;;;;;;;;7.26;100.00;98961.31;4985761;28;19924;-87
2023/07/15 09:13:27;;;;;;;;;;;;;;;7.28;100.00;98948.06;4993755;28;19925;-90
2023/07/15 09:15:52;;;;;;;;;;;;;;;7.32;100.00;98978.63;5001608;28;19928;-92
2023/07/15 09:18:19;;;;;;;;;;;;;;;7.28;100.00;99003.41;4984478;28;20293;-90
2023/07/15 09:20:44;;;;;;;;;;;;;;;7.27;100.00;99030.66;4985594;28;19921;-87
2023/07/15 09:23:10;;;;;;;;;;;;;;;7.30;100.00;99043.72;4998743;28;19924;-85
2023/07/15 09:25:36;;;;;;;;;;;;;;;7.30;100.00;99035.81;4979603;28;20329;-86
2023/07/15 09:28:01;;;;;;;;;;;;;;;7.33;100.00;99033.06;4985484;28;19925;-85
2023/07/15 09:30:26;;;;;;;;;;;;;;;7.33;100.00;99027.78;5003085;28;20361;-85
2023/07/15 09:32:52;;;;;;;;;;;;;;;7.36;100.00;99017.13;4996799;28;19922;-84
2023/07/15 09:35:17;;;;;;;;;;;;;;;7.38;100.00;99017.06;4985488;28;19918;-84
2023/07/15 09:37:46;;;;;;;;;;;;;;;7.46;100.00;99013.16;5003517;28;19921;-85
2023/07/15 09:40:11;;;;;;;;;;;;;;;7.39;100.00;99006.44;4984951;28;19917;-87
2023/07/15 09:42:52;;;;;;;;;;;;;;;7.40;100.00;99002.91;5002909;28;19972;-84
2023/07/15 09:45:30;;;;;;;;;;;;;;;7.45;100.00;98995.66;4985143;28;19944;-85
2023/07/15 09:47:55;;;;;;;;;;;;;;;7.42;100.00;98987.03;5000866;28;20299;-85
2023/07/15 09:50:22;;;;;;;;;;;;;;;7.48;100.00;98981.47;5002807;28;19924;-85
2023/07/15 09:52:47;;;;;;;;;;;;;;;7.46;100.00;98981.53;5002598;28;19928;-88
2023/07/15 09:55:12;;;;;;;;;;;;;;;7.48;100.00;98968.28;5002406;28;19922;-84
2023/07/15 09:57:38;;;;;;;;;;;;;;;7.51;100.00;98957.59;4985065;28;19917;-84
2023/07/15 10:00:05;;;;;;;;;;;;;;;7.53;100.00;98947.00;5002987;28;20325;-85
2023/07/15 10:02:46;;;;;;;;;;;;;;;7.52;100.00;98956.69;5001298;28;19964;-89
2023/07/15 10:05:14;;;;;;;;;;;;;;;7.50;100.00;98945.38;4985401;28;20262;-86
2023/07/15 10:07:42;;;;;;;;;;;;;;;7.60;100.00;98945.81;4985250;28;19928;-92
2023/07/15 10:10:08;;;;;;;;;;;;;;;7.61;100.00;98960.69;4986207;28;19921;-91
2023/07/15 10:12:34;;;;;;;;;;;;;;;7.58;100.00;98963.50;4983987;28;19918;-87
2023/07/15 10:15:00;;;;;;;;;;;;;;;7.48;100.00;98985.88;5002213;28;19924;-91
2023/07/15 10:17:32;;;;;;;;;;;;;;;7.50;100.00;98984.03;4983997;28;19922;-88
2023/07/15 10:20:02;;;;;;;;;;;;;;;7.56;100.00;98983.78;4982794;28;19917;-86
2023/07/15 10:22:32;;;;;;;;;;;;;;;7.54;100.00;98998.81;4984830;28;19918;-93
2023/07/15 10:24:57;;;;;;;;;;;;;;;7.56;100.00;98994.31;5002085;28;20381;-90
2023/07/15 10:27:27;;;;;;;;;;;;;;;7.57;100.00;98993.41;4985125;28;19925;-85
2023/07/15 10:30:11;;;;;;;;;;;;;;;7.56;100.00;98991.69;4985046;28;19917;-89
2023/07/15 10:32:36;;;;;;;;;;;;;;;7.52;100.00;98992.75;5000522;28;19922;-87
2023/07/15 10:35:03;;;;;;;;;;;;;;;7.55;100.00;98992.63;4984780;28;19928;-84
2023/07/15 10:37:32;;;;;;;;;;;;;;;7.53;100.00;98991.81;4985058;28;19918;-87
2023/07/15 10:39:58;;;;;;;;;;;;;;;7.53;100.00;98978.63;4984522;28;19921;-89
2023/07/15 10:42:23;;;;;;;;;;;;;;;7.56;100.00;98970.59;4995513;28;20372;-86
2023/07/15 10:44:52;;;;;;;;;;;;;;;7.58;100.00;98972.25;4984329;28;19972;-88
2023/07/15 10:47:18;;;;;;;;;;;;;;;7.67;100.00;98973.59;4999224;28;19960;-87
2023/07/15 10:49:44;;;;;;;;;;;;;;;7.60;100.00;98966.91;4992837;28;19956;-90
2023/07/15 10:52:09;;;;;;;;;;;;;;;7.62;100.00;98962.41;4980090;28;20001;-89
2023/07/15 10:54:36;;;;;;;;;;;;;;;7.72;100.00;98983.97;5003114;28;20358;-90
2023/07/15 10:57:12;;;;;;;;;;;;;;;7.72;100.00;98978.69;5002949;28;20273;-90
2023/07/15 10:59:39;;;;;;;;;;;;;;;7.76;100.00;98996.09;5002157;28;20056;-85
2023/07/15 11:02:04;;;;;;;;;;;;;;;7.78;100.00;98996.88;4982998;28;19929;-86
2023/07/15 11:04:30;;;;;;;;;;;;;;;7.79;100.00;99001.25;5001777;28;19913;-85
2023/07/15 11:07:08;;;;;;;;;;;;;;;7.90;100.00;99009.53;4984281;28;20013;-85
2023/07/15 11:09:43;;;;;;;;;;;;;;;7.85;100.00;99005.38;4983551;28;19918;-83
2023/07/15 11:12:09;;;;;;;;;;;;;;;7.93;100.00;99005.88;5001148;28;20285;-87
2023/07/15 11:14:37;;;;;;;;;;;;;;;7.94;100.00;99016.38;4992392;28;19921;-85
2023/07/15 11:17:03;;;;;;;;;;;;;;;8.07;100.00;98995.56;4983400;28;19976;-87
2023/07/15 11:19:29;;;;;;;;;;;;;;;8.00;100.00;99000.28;4983232;28;19917;-86
2023/07/15 11:21:55;;;;;;;;;;;;;;;7.97;100.00;98999.56;4995514;28;19924;-90
2023/07/15 11:24:21;;;;;;;;;;;;;;;8.01;100.00;98987.97;4985134;28;20607;-85
2023/07/15 11:26:46;;;;;;;;;;;;;;;8.07;100.00;98981.53;4988006;28;19929;-85
2023/07/15 11:29:12;;;;;;;;;;;;;;;8.02;100.00;98962.41;4987964;28;19917;-86
2023/07/15 11:31:40;;;;;;;;;;;;;;;8.04;100.00;98969.34;4987050;28;19918;-87
2023/07/15 11:34:09;;;;;;;;;;;;;;;8.05;100.00;98981.59;5003322;28;19921;-86
2023/07/15 11:36:34;;;;;;;;;;;;;;;8.07;100.00;98979.75;4988312;28;19918;-86
2023/07/15 11:39:00;;;;;;;;;;;;;;;8.02;100.00;98973.81;4987543;28;19921;-88
2023/07/15 11:41:26;;;;;;;;;;;;;;;7.98;100.00;98985.47;4987530;28;19917;-85
2023/07/15 11:43:51;;;;;;;;;;;;;;;8.12;100.00;98977.78;4987658;28;19922;-86
2023/07/15 11:46:17;;;;;;;;;;;;;;;8.07;100.00;98990.28;4987443;28;19913;-86
2023/07/15 11:48:42;;;;;;;;;;;;;;;8.03;100.00;98983.47;4985792;28;20510;-86
2023/07/15 11:51:09;;;;;;;;;;;;;;;7.98;100.00;98981.03;5005076;28;20387;-88
2023/07/15 11:53:36;;;;;;;;;;;;;;;8.04;100.00;98964.06;4987110;28;20607;-88
2023/07/15 11:56:02;;;;;;;;;;;;;;;8.07;100.00;98941.94;5003810;28;19964;-84
2023/07/15 11:58:46;;;;;;;;;;;;;;;8.06;100.00;98929.69;4984175;28;19953;-86
2023/07/15 12:01:14;;;;;;;;;;;;;;;8.02;100.00;98931.59;4987070;28;19918;-87
2023/07/15 12:03:40;;;;;;;;;;;;;;;7.97;100.00;98931.81;4986719;28;19964;-89
2023/07/15 12:06:12;;;;;;;;;;;;;;;8.04;100.00;98935.06;4987037;28;20016;-91
2023/07/15 12:08:37;;;;;;;;;;;;;;;8.13;100.00;98937.25;5004316;28;19965;-91
2023/07/15 12:11:03;;;;;;;;;;;;;;;8.11;100.00;98933.84;4987377;28;20019;-86
2023/07/15 12:13:28;;;;;;;;;;;;;;;8.05;100.00;98907.72;5005734;28;19914;-91
2023/07/15 12:15:53;;;;;;;;;;;;;;;8.12;100.00;98869.59;4997908;28;20292;-86
2023/07/15 12:18:18;;;;;;;;;;;;;;;8.18;100.00;98950.22;5003022;28;19917;-90
2023/07/15 12:20:44;;;;;;;;;;;;;;;8.19;100.00;98989.75;4987040;28;19922;-85
2023/07/15 12:23:09;;;;;;;;;;;;;;;8.25;100.00;98977.19;4981638;28;19933;-90
2023/07/15 12:25:34;;;;;;;;;;;;;;;8.19;100.00;98981.81;4986594;28;19921;-89
2023/07/15 12:27:59;;;;;;;;;;;;;;;8.25;100.00;98990.38;5005127;28;19917;-87
2023/07/15 12:30:25;;;;;;;;;;;;;;;8.17;100.00;98990.75;4986403;28;19946;-86
2023/07/15 12:32:50;;;;;;;;;;;;;;;8.28;100.00;98998.16;4985303;28;19971;-90
2023/07/15 12:35:15;;;;;;;;;;;;;;;8.27;100.00;98997.31;4986501;28;19932;-86
2023/07/15 12:37:40;;;;;;;;;;;;;;;8.28;100.00;98956.81;4985820;28;19925;-88
2023/07/15 12:40:06;;;;;;;;;;;;;;;8.18;100.00;98950.22;4986367;28;19950;-86
2023/07/15 12:42:31;;;;;;;;;;;;;;;8.18;100.00;98950.22;5003566;28;19918;-88
2023/07/15 12:44:57;;;;;;;;;;;;;;;8.23;100.00;98940.31;5003642;28;19917;-86
2023/07/15 12:47:22;;;;;;;;;;;;;;;15.05;100.00;98944.50;4985096;28;20399;-84
2023/07/15 12:49:47;;;;;;;;;;;;;;;11.05;100.00;98941.53;4986287;28;19925;-88
2023/07/15 12:52:12;;;;;;;;;;;;;;;9.35;100.00;98947.25;5003897;28;20281;-86
2023/07/15 12:54:37;;;;;;;;;;;;;;;8.93;100.00;98953.72;5003444;28;19918;-88
2023/07/15 12:57:03;;;;;;;;;;;;;;;8.74;100.00;98959.06;5003704;28;19917;-86
2023/07/15 12:59:28;;;;;;;;;;;;;;;8.66;100.00;98958.56;4986110;28;19969;-87
2023/07/15 13:01:53;;;;;;;;;;;;;;;8.65;100.00;98957.72;4985183;28;20369;-85
2023/07/15 13:04:19;;;;;;;;;;;;;;;8.59;100.00;98967.75;4979741;28;19917;-87
2023/07/15 13:06:44;;;;;;;;;;;;;;;8.60;100.00;98956.22;4985325;28;19921;-88
2023/07/15 13:09:09;;;;;;;;;;;;;;;8.60;100.00;98967.66;4986109;28;19972;-88
2023/07/15 13:11:36;;;;;;;;;;;;;;;8.60;100.00;98967.66;4996706;28;19924;-86
2023/07/15 13:14:01;;;;;;;;;;;;;;;8.61;100.00;98974.63;4985775;28;20392;-87
2023/07/15 13:16:27;;;;;;;;;;;;;;;8.59;100.00;98978.31;5003385;28;19921;-87
2023/07/15 13:18:52;;;;;;;;;;;;;;;8.56;100.00;98981.94;4985381;28;20323;-89
2023/07/15 13:21:17;;;;;;;;;;;;;;;8.55;100.00;98977.56;4996265;28;19928;-89
2023/07/15 13:23:42;;;;;;;;;;;;;;;8.54;100.00;98991.72;4985434;28;20411;-88
2023/07/15 13:26:08;;;;;;;;;;;;;;;8.59;100.00;99007.34;5003512;28;19921;-86
2023/07/15 13:28:33;;;;;;;;;;;;;;;8.59;100.00;99028.47;5003023;28;19925;-88
2023/07/15 13:30:58;;;;;;;;;;;;;;;8.56;100.00;99033.91;4998396;28;19924;-85
2023/07/15 13:33:24;;;;;;;;;;;;;;;8.56;100.00;99065.59;4983895;28;20369;-88
2023/07/15 13:35:49;;;;;;;;;;;;;;;8.54;100.00;99061.22;5003168;28;19929;-88
2023/07/15 13:38:14;;;;;;;;;;;;;;;8.47;100.00;99053.66;4985231;28;19924;-86
2023/07/15 13:40:39;;;;;;;;;;;;;;;8.54;100.00;99045.38;4984896;28;19921;-89
2023/07/15 13:43:05;;;;;;;;;;;;;;;8.54;100.00;99048.00;4985176;28;20362;-89
2023/07/15 13:45:30;;;;;;;;;;;;;;;8.54;100.00;99050.66;4985051;28;20804;-88
2023/07/15 13:47:56;;;;;;;;;;;;;;;8.52;100.00;99038.44;4983901;28;19924;-87
2023/07/15 13:50:21;;;;;;;;;;;;;;;8.48;100.00;99058.84;4984708;28;19922;-85
2023/07/15 13:52:46;;;;;;;;;;;;;;;8.55;100.00;99064.69;4985828;28;19928;-85
2023/07/15 13:55:12;;;;;;;;;;;;;;;8.56;100.00;99068.22;4997934;28;19928;-85
2023/07/15 13:57:37;;;;;;;;;;;;;;;8.53;100.00;99056.84;4985704;28;19921;-87
2023/07/15 14:00:04;;;;;;;;;;;;;;;8.58;100.00;99061.94;4985698;28;20353;-90
2023/07/15 14:02:29;;;;;;;;;;;;;;;8.57;100.00;99065.50;4979165;28;19918;-88
2023/07/15 14:04:54;;;;;;;;;;;;;;;8.59;100.00;99062.81;4985357;28;20004;-88
2023/07/15 14:07:20;;;;;;;;;;;;;;;8.56;100.00;99050.59;4985578;28;20324;-86
2023/07/15 14:09:45;;;;;;;;;;;;;;;8.64;100.00;99069.56;4984865;28;19922;-86
2023/07/15 14:12:10;;;;;;;;;;;;;;;8.62;100.00;99060.03;4981657;28;19925;-90
2023/07/15 14:14:35;;;;;;;;;;;;;;;8.56;100.00;99055.88;5002030;28;19926;-87
2023/07/15 14:17:00;;;;;;;;;;;;;;;8.63;100.00;99074.91;4984077;28;19917;-88
2023/07/15 14:19:26;;;;;;;;;;;;;;;8.60;100.00;99097.06;4984390;28;19960;-87
2023/07/15 14:21:51;;;;;;;;;;;;;;;8.62;100.00;99083.78;4985219;28;19945;-86
2023/07/15 14:24:16;;;;;;;;;;;;;;;8.58;100.00;99084.84;4984917;28;19918;-85
2023/07/15 14:26:42;;;;;;;;;;;;;;;8.57;100.00;99083.13;4984728;28;19925;-87
2023/07/15 14:29:07;;;;;;;;;;;;;;;8.61;100.00;99063.56;5002176;28;19945;-83
2023/07/15 14:31:32;;;;;;;;;;;;;;;8.52;100.00;99054.28;5002651;28;19968;-87
2023/07/15 14:33:58;;;;;;;;;;;;;;;8.52;100.00;99049.00;4983347;28;19922;-86
2023/07/15 14:36:24;;;;;;;;;;;;;;;8.54;100.00;99042.72;4984464;28;20024;-85
2023/07/15 14:38:50;;;;;;;;;;;;;;;8.53;100.00;99029.59;5002071;28;19992;-86
2023/07/15 14:41:16;;;;;;;;;;;;;;;8.55;100.00;99027.75;4984440;28;20468;-84
2023/07/15 14:43:41;;;;;;;;;;;;;;;8.59;100.00;99050.44;5001971;28;20278;-85
2023/07/15 14:46:08;;;;;;;;;;;;;;;8.58;100.00;99071.63;4997317;28;19922;-87
2023/07/15 14:48:34;;;;;;;;;;;;;;;8.59;100.00;99070.72;4998789;28;19945;-85
2023/07/15 14:50:59;;;;;;;;;;;;;;;8.64;100.00;99055.50;4981610;28;19922;-86
2023/07/15 14:53:25;;;;;;;;;;;;;;;8.63;100.00;99052.03;5001975;28;19968;-88
2023/07/15 14:55:50;;;;;;;;;;;;;;;8.63;100.00;99052.03;4998292;28;20294;-86
2023/07/15 14:58:15;;;;;;;;;;;;;;;8.63;100.00;99049.38;4980386;28;19936;-87
2023/07/15 15:00:40;;;;;;;;;;;;;;;8.62;100.00;99038.91;4993630;28;20008;-85
2023/07/15 15:03:05;;;;;;;;;;;;;;;19.09;100.00;99033.75;4984887;28;19933;-82
2023/07/15 15:05:31;;;;;;;;;;;;;;;22.35;100.00;99022.09;4979152;28;20539;-83
2023/07/15 15:07:56;;;;;;;;;;;;;;;22.19;100.00;98985.88;4986084;28;20779;-83
2023/07/15 15:10:21;;;;;;;;;;;;;;;22.85;100.00;98978.13;4988199;28;19924;-81
2023/07/15 15:12:47;;;;;;;;;;;;;;;22.87;100.00;98981.50;5006019;28;19918;-84
2023/07/15 15:15:12;;;;;;;;;;;;;;;21.49;100.00;99000.22;4987874;28;20008;-83
2023/07/15 15:17:37;;;;;;;;;;;;;;;21.32;100.00;99012.66;4984403;28;20276;-84
2023/07/15 15:20:05;;;;;;;;;;;;;;;20.76;100.00;99029.84;4981813;28;19929;-82
2023/07/15 15:22:30;;;;;;;;;;;;;;;21.44;100.00;99034.81;4987044;28;19984;-82
2023/07/15 15:24:55;;;;;;;;;;;;;;;21.62;100.00;99025.91;5002525;28;19925;-85
2023/07/15 15:27:21;;;;;;;;;;;;;;;21.31;100.00;99035.19;5005206;28;19917;-82
2023/07/15 15:29:46;;;;;;;;;;;;;;;21.93;100.00;99019.09;4988080;28;19934;-81
2023/07/15 15:32:11;;;;;;;;;;;;;;;21.54;100.00;99035.63;4983218;28;19926;-82
2023/07/15 15:34:37;;;;;;;;;;;;;;;20.58;100.00;99027.94;4999819;28;19922;-82
2023/07/15 15:37:02;;;;;;;;;;;;;;;20.11;100.00;99031.47;4982383;28;19932;-82
2023/07/15 15:39:27;;;;;;;;;;;;;;;21.93;100.00;99016.38;4985086;28;19976;-82
2023/07/15 15:41:53;;;;;;;;;;;;;;;21.93;100.00;98975.94;4987046;28;19924;-82
2023/07/15 15:44:18;;;;;;;;;;;;;;;22.26;100.00;98954.56;4995250;28;20006;-83
2023/07/15 15:46:43;;;;;;;;;;;;;;;22.31;100.00;98992.72;4979984;28;19921;-82
2023/07/15 15:49:08;;;;;;;;;;;;;;;18.45;100.00;99025.88;4980032;28;20391;-85
2023/07/15 15:51:34;;;;;;;;;;;;;;;14.92;100.00;99051.25;4987211;28;19940;-86
2023/07/15 15:54:01;;;;;;;;;;;;;;;13.71;100.00;99023.28;4986827;28;20385;-87
2023/07/15 15:56:26;;;;;;;;;;;;;;;12.44;100.00;99001.34;5011739;23;19926;-86
2023/07/15 15:58:52;;;;;;;;;;;;;;;12.09;100.00;98972.53;4970981;28;19931;-91
2023/07/15 16:01:17;;;;;;;;;;;;;;;12.05;100.00;98979.84;4971989;28;20319;-86
2023/07/15 16:03:42;;;;;;;;;;;;;;;11.70;100.00;99006.69;4976019;28;19925;-86
2023/07/15 16:06:08;;;;;;;;;;;;;;;10.81;100.00;99002.09;4994842;28;19924;-84
2023/07/15 16:08:33;;;;;;;;;;;;;;;10.22;100.00;98999.13;4994840;28;20328;-88
2023/07/15 16:10:58;;;;;;;;;;;;;;;9.99;100.00;98989.78;4994788;28;19917;-87
2023/07/15 16:13:25;;;;;;;;;;;;;;;9.76;100.00;98996.28;4995599;28;19922;-86
2023/07/15 16:15:50;;;;;;;;;;;;;;;10.06;100.00;99004.38;4994781;28;19953;-89
2023/07/15 16:18:16;;;;;;;;;;;;;;;10.46;100.00;99025.25;4993348;28;20016;-88
2023/07/15 16:20:41;;;;;;;;;;;;;;;10.61;100.00;99027.06;4994552;28;19925;-89
2023/07/15 16:23:07;;;;;;;;;;;;;;;9.97;100.00;99003.09;4994659;28;19925;-87
2023/07/15 16:25:32;;;;;;;;;;;;;;;9.36;100.00;98999.16;4974521;28;19922;-87
2023/07/15 16:27:58;;;;;;;;;;;;;;;9.17;100.00;99006.31;4973209;28;19922;-87
2023/07/15 16:30:23;;;;;;;;;;;;;;;8.99;100.00;99010.72;4976126;28;19918;-89
2023/07/15 16:32:48;;;;;;;;;;;;;;;8.91;100.00;98989.94;4974910;28;19921;-88
2023/07/15 16:35:14;;;;;;;;;;;;;;;8.81;100.00;98983.41;4974310;28;20029;-87
2023/07/15 16:37:39;;;;;;;;;;;;;;;8.69;100.00;98979.56;4975085;28;19922;-89
2023/07/15 16:40:04;;;;;;;;;;;;;;;8.63;100.00;98982.50;4977483;28;20349;-92
2023/07/15 16:42:30;;;;;;;;;;;;;;;8.58;100.00;99000.34;4973889;28;19922;-89
2023/07/15 16:44:55;;;;;;;;;;;;;;;8.48;100.00;99011.31;4974359;28;20008;-92
2023/07/15 16:47:20;;;;;;;;;;;;;;;8.44;100.00;99028.25;4972534;28;20366;-89
2023/07/15 16:49:45;;;;;;;;;;;;;;;8.38;100.00;99012.66;4987859;28;19922;-90
2023/07/15 16:52:12;;;;;;;;;;;;;;;8.33;100.00;99002.31;4977412;28;19952;-88
2023/07/15 16:54:37;;;;;;;;;;;;;;;8.26;100.00;98986.81;4976821;28;20024;-90
2023/07/15 16:57:02;;;;;;;;;;;;;;;8.17;100.00;98981.06;4991578;28;20008;-89
2023/07/15 16:59:28;;;;;;;;;;;;;;;8.18;100.00;98974.84;4976847;28;19921;-87
2023/07/15 17:01:56;;;;;;;;;;;;;;;8.06;100.00;98983.31;4976673;28;19918;-90
2023/07/15 17:04:21;;;;;;;;;;;;;;;7.99;100.00;98984.50;4994877;28;19918;-88
2023/07/15 17:06:47;;;;;;;;;;;;;;;8.03;100.00;98987.88;4974043;28;19926;-86
2023/07/15 17:09:12;;;;;;;;;;;;;;;7.94;100.00;98975.97;4983512;28;19926;-86
2023/07/15 17:11:37;;;;;;;;;;;;;;;7.91;100.00;98971.66;4974629;28;19976;-91
2023/07/15 17:14:03;;;;;;;;;;;;;;;7.91;100.00;98981.38;4976448;28;19922;-87
2023/07/15 17:16:29;;;;;;;;;;;;;;;7.78;100.00;98988.97;4977127;28;19922;-93
2023/07/15 17:18:56;;;;;;;;;;;;;;;7.76;100.00;98990.81;4981424;28;19921;-91
2023/07/15 17:21:21;;;;;;;;;;;;;;;7.77;100.00;98998.66;4994223;28;20005;-89
2023/07/15 17:23:46;;;;;;;;;;;;;;;7.64;100.00;99010.66;4994965;28;20148;-92
2023/07/15 17:26:12;;;;;;;;;;;;;;;7.67;100.00;99013.16;4994841;28;19924;-88
2023/07/15 17:28:37;;;;;;;;;;;;;;;7.59;100.00;99024.03;5013425;28;19926;-87
2023/07/15 17:31:02;;;;;;;;;;;;;;;7.62;100.00;99041.50;4995603;28;19960;-87
2023/07/15 17:33:27;;;;;;;;;;;;;;;7.59;100.00;99041.66;4988865;28;20285;-88
2023/07/15 17:35:52;;;;;;;;;;;;;;;7.52;100.00;99048.97;4992038;28;19960;-87
2023/07/15 17:38:18;;;;;;;;;;;;;;;7.55;100.00;99038.28;4990766;28;19921;-93
2023/07/15 17:40:43;;;;;;;;;;;;;;;7.92;100.00;99023.50;5012011;28;19922;-84
2023/07/15 17:43:08;;;;;;;;;;;;;;;7.67;100.00;99023.72;4996022;28;19921;-85
2023/07/15 17:45:33;;;;;;;;;;;;;;;7.56;100.00;99024.19;5013374;28;19917;-86
2023/07/15 17:47:59;;;;;;;;;;;;;;;7.51;100.00;99027.94;4993735;28;19972;-88
2023/07/15 17:50:25;;;;;;;;;;;;;;;7.41;100.00;99025.69;5006516;28;19917;-88
2023/07/15 17:52:54;;;;;;;;;;;;;;;7.40;100.00;99031.88;4988158;28;19980;-91
2023/07/15 17:55:19;;;;;;;;;;;;;;;7.32;100.00;99044.50;4989171;28;19921;-90
2023/07/15 17:57:44;;;;;;;;;;;;;;;7.32;100.00;99055.03;5001813;28;20319;-90
2023/07/15 18:00:10;;;;;;;;;;;;;;;7.39;100.00;99045.97;5009221;28;19962;-86
2023/07/15 18:02:36;;;;;;;;;;;;;;;7.28;100.00;99049.06;5009074;28;20451;-86
2023/07/15 18:05:01;;;;;;;;;;;;;;;7.25;100.00;99048.31;5007354;28;19961;-87
2023/07/15 18:07:26;;;;;;;;;;;;;;;7.23;100.00;99039.63;4997150;28;19924;-85
2023/07/15 18:09:51;;;;;;;;;;;;;;;7.32;100.00;99038.38;4996037;28;19928;-84
2023/07/15 18:12:17;;;;;;;;;;;;;;;7.22;100.00;99032.63;4991774;28;19928;-88
2023/07/15 18:14:43;;;;;;;;;;;;;;;7.22;100.00;99030.00;4994199;28;20314;-87
2023/07/15 18:17:08;;;;;;;;;;;;;;;7.24;100.00;99030.78;5012305;28;19917;-88
2023/07/15 18:19:33;;;;;;;;;;;;;;;7.22;100.00;99048.44;5011708;28;19917;-86